Time;durP1;ratioP1;P1;durP2;ratioP2;P2;SDS_P1;SDS_P2;PMS_P1;PMS_P2;Temp;Humidity;BMP_temperature;BMP_pressure;BME280_temperature;BME280_humidity;BME280_pressure;Samples;Min_cycle;Max_cycle;Signal;HPM_P1;HPM_P2
2021/07/21 00:00:26;;;;;;;6.82;4.53;;;;;;;17.74;57.79;100594.19;4898024;28;96571;-85
2021/07/21 00:02:52;;;;;;;7.57;4.57;;;;;;;17.68;57.77;100591.06;4898228;28;96969;-90
2021/07/21 00:05:22;;;;;;;6.25;4.15;;;;;;;17.63;58.44;100594.00;4900305;28;99987;-90
2021/07/21 00:07:47;;;;;;;6.45;4.75;;;;;;;17.60;57.88;100594.19;4901536;28;101448;-89
2021/07/21 00:10:15;;;;;;;9.88;4.57;;;;;;;17.54;58.20;100591.88;4895932;28;96869;-85
2021/07/21 00:15:28;;;;;;;8.30;4.93;;;;;;;17.35;58.76;100606.22;4916783;28;97608;-88
2021/07/21 00:18:02;;;;;;;8.52;4.43;;;;;;;17.27;59.14;100602.28;4902953;28;102051;-90
2021/07/21 00:20:32;;;;;;;8.60;4.45;;;;;;;17.22;59.36;100607.88;4903328;28;97030;-90
2021/07/21 00:23:00;;;;;;;6.50;4.70;;;;;;;17.20;59.32;100604.44;4901475;28;96689;-89
2021/07/21 00:25:26;;;;;;;7.13;4.28;;;;;;;17.24;59.18;100597.16;4900346;28;97428;-89
2021/07/21 00:27:51;;;;;;;6.10;4.43;;;;;;;17.06;59.59;100601.72;4900727;28;101847;-90
2021/07/21 00:30:19;;;;;;;10.50;4.75;;;;;;;17.06;59.88;100596.41;4895167;28;98273;-86
2021/07/21 00:32:44;;;;;;;6.05;4.57;;;;;;;17.10;59.64;100590.84;4884207;28;97013;-90
2021/07/21 00:35:18;;;;;;;9.20;4.85;;;;;;;17.01;60.02;100588.72;4915866;28;98721;-88
2021/07/21 00:37:45;;;;;;;7.47;4.97;;;;;;;17.00;59.71;100597.63;4884749;28;101607;-90
2021/07/21 00:40:13;;;;;;;7.85;4.72;;;;;;;17.03;59.81;100584.19;4901250;28;97024;-90
2021/07/21 00:42:42;;;;;;;10.32;5.60;;;;;;;17.04;59.81;100593.84;4900910;28;96833;-92
2021/07/21 00:45:08;;;;;;;6.38;4.40;;;;;;;17.05;59.76;100592.91;4900058;28;101551;-90
2021/07/21 00:47:37;;;;;;;9.38;5.30;;;;;;;17.11;59.47;100600.53;4899989;28;101277;-90
2021/07/21 00:50:04;;;;;;;7.88;4.63;;;;;;;17.01;59.71;100583.41;4898120;28;98106;-91
2021/07/21 00:52:32;;;;;;;6.32;4.20;;;;;;;16.91;60.06;100590.19;4881699;28;97188;-91
2021/07/21 00:55:05;;;;;;;8.10;4.75;;;;;;;16.81;60.40;100588.97;4899692;28;101426;-91
2021/07/21 00:57:31;;;;;;;6.63;4.38;;;;;;;16.77;60.61;100588.31;4899309;28;98880;-91
2021/07/21 00:59:57;;;;;;;6.88;4.75;;;;;;;16.69;61.12;100587.84;4917044;28;96752;-92
2021/07/21 01:02:24;;;;;;;9.77;4.82;;;;;;;16.73;60.72;100592.03;4900633;28;96712;-92
2021/07/21 01:04:53;;;;;;;11.32;5.07;;;;;;;16.73;60.74;100592.03;4916577;28;100154;-91
2021/07/21 01:07:23;;;;;;;6.43;4.35;;;;;;;16.74;60.59;100591.09;4916085;28;100818;-83
2021/07/21 01:09:48;;;;;;;7.95;5.25;;;;;;;16.70;60.71;100585.13;4900249;28;96804;-89
2021/07/21 01:12:18;;;;;;;5.60;4.68;;;;;;;16.73;60.71;100595.53;4910775;28;96927;-89
2021/07/21 01:15:02;;;;;;;7.22;4.70;;;;;;;16.83;60.28;100589.75;4914876;28;101753;-91
2021/07/21 01:17:45;;;;;;;8.57;5.05;;;;;;;16.77;60.58;100598.06;4915119;28;99178;-90
2021/07/21 01:20:37;;;;;;;9.77;5.15;;;;;;;16.66;61.02;100590.66;4915457;28;97292;-88
2021/07/21 01:23:10;;;;;;;8.15;4.90;;;;;;;16.63;61.03;100593.47;4901015;28;96807;-92
2021/07/21 01:25:42;;;;;;;8.73;4.90;;;;;;;16.65;61.04;100583.66;4899459;28;99608;-89
2021/07/21 01:28:17;;;;;;;10.98;5.60;;;;;;;16.72;60.53;100585.84;4901511;28;99667;-91
2021/07/21 01:30:50;;;;;;;7.75;5.50;;;;;;;16.56;60.99;100587.66;4886800;28;96840;-91
2021/07/21 01:33:21;;;;;;;7.88;4.70;;;;;;;16.72;60.72;100587.66;4895106;28;96933;-83
2021/07/21 01:35:51;;;;;;;10.50;5.13;;;;;;;16.66;60.85;100588.00;4898662;28;99748;-87
2021/07/21 01:38:32;;;;;;;9.35;4.85;;;;;;;16.59;61.08;100591.94;4899584;28;99409;-90
2021/07/21 01:41:34;;;;;;;9.23;4.97;;;;;;;16.48;61.36;100589.88;4901431;28;96662;-89
2021/07/21 01:44:03;;;;;;;9.05;4.95;;;;;;;16.41;61.52;100592.00;4916536;28;96911;-89
2021/07/21 01:46:29;;;;;;;8.20;5.03;;;;;;;16.38;61.53;100593.97;4899621;28;99406;-90
2021/07/21 01:48:57;;;;;;;10.30;4.72;;;;;;;16.45;61.38;100590.88;4901095;28;99348;-89
2021/07/21 01:51:27;;;;;;;9.10;5.25;;;;;;;16.43;61.51;100592.75;4900869;28;96568;-90
2021/07/21 01:53:54;;;;;;;6.25;4.75;;;;;;;16.42;61.48;100593.69;4922518;28;97104;-89
2021/07/21 01:56:22;;;;;;;7.45;5.07;;;;;;;16.48;61.30;100590.72;4899532;28;96982;-84
2021/07/21 01:58:52;;;;;;;6.53;4.90;;;;;;;16.42;61.55;100588.41;4899727;28;99784;-88
2021/07/21 02:01:47;;;;;;;7.60;4.85;;;;;;;16.41;61.63;100591.16;4902640;28;96719;-86
2021/07/21 02:04:25;;;;;;;9.23;5.05;;;;;;;16.37;61.86;100594.88;4886955;28;96999;-83
2021/07/21 02:06:52;;;;;;;7.75;4.95;;;;;;;16.37;61.64;100593.09;4900295;28;99945;-88
2021/07/21 02:09:18;;;;;;;6.05;4.45;;;;;;;16.32;61.97;100591.63;4883836;28;99419;-89
2021/07/21 02:11:46;;;;;;;10.25;5.30;;;;;;;16.37;62.14;100597.53;4884979;28;96521;-89
2021/07/21 02:14:13;;;;;;;10.57;5.32;;;;;;;16.29;62.08;100598.81;4916152;28;96811;-88
2021/07/21 02:17:00;;;;;;;7.20;4.47;;;;;;;16.25;62.50;100599.91;4936750;23;98941;-90
2021/07/21 02:19:35;;;;;;;5.70;4.60;;;;;;;16.26;62.35;100606.94;4899084;28;99471;-87
2021/07/21 02:22:21;;;;;;;7.93;5.30;;;;;;;16.24;62.36;100603.50;4939495;23;96860;-88
2021/07/21 02:24:58;;;;;;;10.38;5.30;;;;;;;16.22;62.50;100597.41;4901332;28;97088;-89
2021/07/21 02:27:35;;;;;;;7.03;5.45;;;;;;;16.21;62.42;100606.31;4915618;28;99142;-90
2021/07/21 02:30:07;;;;;;;7.90;5.38;;;;;;;16.27;62.49;100600.69;4899557;28;99156;-88
2021/07/21 02:32:41;;;;;;;8.38;5.03;;;;;;;16.18;62.54;100602.97;4899277;28;97224;-88
2021/07/21 02:35:11;;;;;;;7.07;4.82;;;;;;;16.14;62.94;100602.25;4895649;28;96827;-88
2021/07/21 02:37:37;;;;;;;7.03;5.05;;;;;;;16.18;62.75;100602.97;4898601;28;99712;-88
2021/07/21 02:40:06;;;;;;;6.00;4.57;;;;;;;16.17;62.93;100607.38;4899034;28;99553;-88
2021/07/21 02:42:36;;;;;;;9.00;4.90;;;;;;;16.21;62.71;100610.75;4899749;28;97003;-89
2021/07/21 02:45:03;;;;;;;9.52;5.47;;;;;;;16.15;62.50;100605.78;4900736;28;97202;-88
2021/07/21 02:47:32;;;;;;;9.52;6.22;;;;;;;16.06;62.75;100610.63;4884871;28;99514;-89
2021/07/21 02:50:03;;;;;;;8.75;5.57;;;;;;;16.06;62.78;100620.34;4901442;28;99606;-87
2021/07/21 02:52:36;;;;;;;9.95;5.47;;;;;;;15.99;62.91;100622.44;4900748;28;96628;-88
2021/07/21 02:58:21;;;;;;;9.93;5.82;;;;;;;15.97;63.51;100627.00;5002177;23;98585;-88
2021/07/21 03:00:56;;;;;;;9.70;5.93;;;;;;;15.95;63.29;100618.25;4899659;28;97162;-86
2021/07/21 03:03:24;;;;;;;7.90;5.43;;;;;;;15.98;63.14;100620.75;4916462;28;96648;-87
2021/07/21 03:05:54;;;;;;;8.20;5.60;;;;;;;16.09;62.76;100624.66;4902719;28;96528;-86
2021/07/21 03:08:29;;;;;;;7.63;5.43;;;;;;;16.10;62.95;100627.19;4918987;28;99522;-84
2021/07/21 03:11:04;;;;;;;10.15;5.47;;;;;;;16.13;62.36;100632.34;4906646;28;97863;-87
2021/07/21 03:13:43;;;;;;;9.73;5.57;;;;;;;16.11;62.77;100642.13;4920804;28;96565;-85
2021/07/21 03:16:09;;;;;;;8.52;5.47;;;;;;;16.08;62.78;100634.34;4905702;28;96671;-86
2021/07/21 03:19:00;;;;;;;10.02;5.82;;;;;;;16.05;62.99;100640.66;4980109;23;97966;-88
2021/07/21 03:21:33;;;;;;;12.10;5.53;;;;;;;16.04;62.77;100643.41;4894685;28;99274;-85
2021/07/21 03:24:20;;;;;;;10.98;5.22;;;;;;;16.13;62.56;100636.78;4974431;23;97826;-86
2021/07/21 03:27:05;;;;;;;7.97;5.28;;;;;;;16.05;62.78;100639.81;5009730;23;99076;-90
2021/07/21 03:29:51;;;;;;;7.88;4.97;;;;;;;16.03;62.98;100641.72;4921658;23;98229;-90
2021/07/21 03:32:19;;;;;;;6.60;4.90;;;;;;;15.96;63.28;100635.00;4861390;28;99695;-88
2021/07/21 03:34:46;;;;;;;7.05;5.07;;;;;;;16.00;63.52;100641.88;4861854;28;96916;-89
2021/07/21 03:37:13;;;;;;;9.30;5.45;;;;;;;16.07;62.73;100648.53;4861382;28;100309;-89
2021/07/21 03:39:58;;;;;;;8.32;5.32;;;;;;;16.06;62.81;100647.69;4896628;28;99437;-88
2021/07/21 03:42:42;;;;;;;10.85;6.00;;;;;;;16.09;63.19;100654.63;4992444;23;98633;-86
2021/07/21 03:45:14;;;;;;;12.73;5.35;;;;;;;16.20;63.01;100651.41;4908330;28;96827;-90
2021/07/21 03:47:43;;;;;;;8.35;4.95;;;;;;;16.26;62.81;100646.66;4938158;28;97282;-87
2021/07/21 03:50:12;;;;;;;8.57;5.38;;;;;;;16.40;62.25;100647.72;4905546;28;99783;-88
2021/07/21 03:52:44;;;;;;;8.18;5.20;;;;;;;16.23;62.84;100654.75;4921179;28;98571;-89
2021/07/21 03:55:12;;;;;;;8.25;5.07;;;;;;;16.24;62.80;100659.13;4921457;28;96486;-89
2021/07/21 03:57:47;;;;;;;7.18;5.53;;;;;;;16.33;62.26;100665.72;4920327;28;97103;-89
2021/07/21 04:00:17;;;;;;;6.82;5.18;;;;;;;16.39;62.54;100661.91;4901307;28;99828;-88
2021/07/21 04:02:54;;;;;;;7.10;5.10;;;;;;;16.44;62.21;100659.88;4913569;28;96775;-91
2021/07/21 04:05:20;;;;;;;9.88;5.43;;;;;;;16.58;61.95;100662.66;4933459;28;96880;-89
2021/07/21 04:07:47;;;;;;;6.53;4.97;;;;;;;16.57;62.09;100665.34;4917000;28;97100;-90
2021/07/21 04:10:14;;;;;;;9.90;5.53;;;;;;;16.50;62.37;100670.16;4917189;28;99843;-89
2021/07/21 04:12:49;;;;;;;10.65;5.03;;;;;;;16.57;62.32;100668.00;4916944;28;96524;-89
2021/07/21 04:15:23;;;;;;;10.25;5.43;;;;;;;16.53;62.30;100669.97;4918396;28;96545;-90
2021/07/21 04:17:55;;;;;;;7.22;5.20;;;;;;;16.59;62.33;100674.09;4917757;28;97412;-90
2021/07/21 04:20:29;;;;;;;7.63;5.10;;;;;;;16.69;61.87;100668.19;4933089;28;97557;-90
2021/07/21 04:22:57;;;;;;;8.68;5.32;;;;;;;16.80;61.85;100669.47;4918781;28;100608;-89
2021/07/21 04:25:26;;;;;;;8.27;4.88;;;;;;;16.79;61.64;100673.06;4904104;28;97286;-91
2021/07/21 04:28:00;;;;;;;11.30;4.82;;;;;;;16.91;61.60;100673.22;4905842;28;96828;-90
2021/07/21 04:30:31;;;;;;;7.70;5.70;;;;;;;17.03;61.06;100663.75;4920843;28;100691;-90
2021/07/21 04:33:00;;;;;;;6.45;4.95;;;;;;;17.23;60.80;100667.09;4904220;28;101348;-91
2021/07/21 04:35:29;;;;;;;8.13;4.93;;;;;;;17.19;61.07;100675.22;4920422;28;96921;-91
2021/07/21 04:37:59;;;;;;;12.23;5.15;;;;;;;17.19;61.49;100683.19;4920764;28;97053;-90
2021/07/21 04:40:43;;;;;;;11.18;5.50;;;;;;;17.27;61.21;100682.72;4912830;28;101656;-91
2021/07/21 04:43:41;;;;;;;8.05;5.07;;;;;;;17.44;61.05;100695.06;4917002;28;97725;-90
2021/07/21 04:46:15;;;;;;;8.70;5.15;;;;;;;17.64;60.63;100685.97;4920266;28;96740;-91
2021/07/21 04:48:43;;;;;;;11.50;5.80;;;;;;;17.75;60.00;100694.16;4935868;28;96849;-91
2021/07/21 04:51:18;;;;;;;8.15;5.15;;;;;;;17.84;59.98;100692.81;4906094;28;101560;-90
2021/07/21 04:53:45;;;;;;;10.43;5.30;;;;;;;17.95;60.32;100701.00;4919553;28;100738;-91
2021/07/21 04:56:17;;;;;;;;;;;;;;;18.10;59.98;100696.59;4905772;28;96668;-90
2021/07/21 04:58:43;;;;;;;9.18;5.72;;;;;;;18.18;59.62;100696.97;4934226;28;96896;-91
2021/07/21 05:01:13;;;;;;;16.30;5.30;;;;;;;18.49;58.96;100695.13;4911318;28;102477;-89
2021/07/21 05:03:39;;;;;;;8.70;5.35;;;;;;;18.60;58.61;100697.13;4932583;28;101201;-87
2021/07/21 05:06:08;;;;;;;10.90;4.57;;;;;;;18.80;58.56;100701.25;4900398;28;97053;-88
2021/07/21 05:08:40;;;;;;;16.77;6.07;;;;;;;18.87;58.68;100697.25;4905630;28;96830;-91
2021/07/21 05:11:20;;;;;;;11.02;5.28;;;;;;;19.09;58.04;100694.94;4932714;28;101599;-90
2021/07/21 05:13:47;;;;;;;8.68;4.78;;;;;;;19.33;57.60;100696.97;4915636;28;97432;-90
2021/07/21 05:16:15;;;;;;;11.43;4.93;;;;;;;19.52;57.21;100707.28;4900232;28;97018;-89
2021/07/21 05:18:42;;;;;;;12.73;5.57;;;;;;;19.55;57.10;100701.78;4915322;28;96865;-89
2021/07/21 05:21:17;;;;;;;10.88;5.15;;;;;;;19.76;56.74;100703.03;4902898;28;101486;-85
2021/07/21 05:23:43;;;;;;;8.73;6.05;;;;;;;20.01;56.52;100704.06;4914643;28;100598;-88
2021/07/21 05:26:11;;;;;;;10.40;5.13;;;;;;;20.35;55.84;100698.13;4932498;28;97304;-89
2021/07/21 05:29:03;;;;;;;11.93;5.45;;;;;;;20.61;55.23;100698.16;4936163;28;96850;-89
2021/07/21 05:31:53;;;;;;;9.63;4.90;;;;;;;20.88;54.55;100695.34;4936090;28;100330;-89
2021/07/21 05:34:25;;;;;;;7.68;4.68;;;;;;;21.09;54.27;100705.47;4915496;28;97796;-88
2021/07/21 05:37:04;;;;;;;9.18;4.47;;;;;;;21.38;54.01;100701.59;4914964;28;96837;-89
2021/07/21 05:39:56;;;;;;;6.82;4.35;;;;;;;21.72;52.91;100706.25;4922234;28;96934;-88
2021/07/21 05:42:38;;;;;;;15.23;5.00;;;;;;;22.03;52.64;100702.97;4929765;28;100222;-83
2021/07/21 05:45:05;;;;;;;8.30;4.40;;;;;;;22.60;51.32;100702.16;4916822;28;101044;-86
2021/07/21 05:47:31;;;;;;;8.30;4.20;;;;;;;23.14;50.22;100702.41;4932699;28;97442;-86
2021/07/21 05:49:57;;;;;;;13.50;4.80;;;;;;;23.81;48.74;100699.56;4904622;28;97399;-86
2021/07/21 05:52:32;;;;;;;10.65;4.68;;;;;;;24.65;47.11;100704.09;4917068;28;101771;-85
2021/07/21 05:54:58;;;;;;;7.82;4.40;;;;;;;25.65;45.02;100709.50;4897569;28;101526;-87
2021/07/21 05:57:25;;;;;;;7.65;4.55;;;;;;;26.42;43.30;100714.84;4932289;28;97224;-87
2021/07/21 06:00:06;;;;;;;7.18;4.70;;;;;;;27.23;41.93;100705.38;4917827;28;96710;-86
2021/07/21 06:02:41;;;;;;;8.57;4.18;;;;;;;28.28;40.54;100707.41;4910509;28;97995;-84
2021/07/21 06:05:10;;;;;;;9.98;4.60;;;;;;;28.88;38.71;100702.03;4911950;28;101664;-86
2021/07/21 06:07:58;;;;;;;9.63;5.13;;;;;;;29.78;38.12;100706.88;4922761;28;97426;-87
2021/07/21 06:10:42;;;;;;;11.05;5.63;;;;;;;30.24;36.66;100709.97;4931786;28;97392;-83
2021/07/21 06:13:11;;;;;;;9.65;4.38;;;;;;;30.97;35.94;100702.69;4899229;28;101363;-86
2021/07/21 06:15:37;;;;;;;6.80;4.28;;;;;;;31.34;34.67;100702.00;4915737;28;98558;-86
2021/07/21 06:18:04;;;;;;;10.43;4.38;;;;;;;31.80;34.73;100700.19;4914193;28;97225;-87
2021/07/21 06:20:41;;;;;;;7.78;4.70;;;;;;;32.39;33.85;100691.38;4902371;28;97346;-82
2021/07/21 06:23:07;;;;;;;7.22;3.97;;;;;;;32.43;33.66;100695.38;4915035;28;101047;-87
2021/07/21 06:25:38;;;;;;;8.50;4.28;;;;;;;32.77;33.26;100701.34;4894202;28;101486;-88
2021/07/21 06:28:11;;;;;;;9.43;3.70;;;;;;;33.24;32.65;100697.38;4911922;28;97337;-85
2021/07/21 06:30:39;;;;;;;7.63;4.40;;;;;;;33.48;32.18;100702.47;4929300;28;97394;-85
2021/07/21 06:33:08;;;;;;;11.00;4.25;;;;;;;33.64;31.99;100698.66;4921604;28;101829;-86
2021/07/21 06:35:34;;;;;;;6.60;4.13;;;;;;;33.94;31.53;100707.53;4922981;28;100852;-86
2021/07/21 06:38:01;;;;;;;8.95;4.53;;;;;;;33.95;32.00;100695.63;4943413;28;97686;-86
2021/07/21 06:40:28;;;;;;;7.20;3.83;;;;;;;34.17;31.11;100707.34;4915145;28;96995;-87
2021/07/21 06:42:54;;;;;;;10.45;3.95;;;;;;;33.81;31.38;100697.38;4912845;28;99374;-87
2021/07/21 06:45:21;;;;;;;9.02;3.63;;;;;;;33.98;31.69;100708.84;4914119;28;100151;-88
2021/07/21 06:47:59;;;;;;;8.13;3.60;;;;;;;34.24;31.68;100707.41;4931959;28;97357;-88
2021/07/21 06:50:33;;;;;;;6.45;3.58;;;;;;;34.35;31.28;100706.00;4944629;28;97044;-86
2021/07/21 06:53:00;;;;;;;8.80;3.35;;;;;;;34.41;31.20;100708.78;4913852;28;101555;-84
2021/07/21 06:55:44;;;;;;;8.07;4.18;;;;;;;34.25;31.28;100709.09;4924411;28;97083;-83
2021/07/21 06:58:11;;;;;;;6.28;3.65;;;;;;;33.91;31.82;100717.97;4928659;28;97302;-87
2021/07/21 07:00:55;;;;;;;7.90;4.03;;;;;;;33.88;31.98;100719.19;4922471;28;96795;-86
2021/07/21 07:03:40;;;;;;;8.05;3.58;;;;;;;33.87;32.10;100711.25;4934841;28;97166;-85
2021/07/21 07:06:24;;;;;;;7.45;3.50;;;;;;;33.69;32.39;100722.59;4910522;28;97350;-86
2021/07/21 07:09:28;;;;;;;5.72;3.47;;;;;;;34.16;31.89;100722.00;4899255;28;96888;-85
2021/07/21 07:12:18;;;;;;;9.35;4.65;;;;;;;34.16;32.15;100722.00;4894476;28;97630;-87
2021/07/21 07:14:43;;;;;;;10.05;4.03;;;;;;;34.16;31.95;100727.44;4890647;28;101596;-83
2021/07/21 07:17:09;;;;;;;6.53;3.47;;;;;;;34.53;31.17;100727.28;4929101;28;98475;-87
2021/07/21 07:19:35;;;;;;;6.97;3.50;;;;;;;34.96;30.89;100730.72;4925840;28;97096;-87
2021/07/21 07:22:01;;;;;;;5.70;3.50;;;;;;;35.00;30.37;100733.91;4912599;28;97220;-87
2021/07/21 07:24:28;;;;;;;7.13;3.45;;;;;;;35.22;30.52;100731.91;4889855;28;100127;-88
2021/07/21 07:26:58;;;;;;;6.43;3.22;;;;;;;35.75;29.95;100724.75;4912797;28;98569;-87
2021/07/21 07:29:24;;;;;;;6.03;3.55;;;;;;;35.75;29.71;100723.88;4930862;28;97029;-87
2021/07/21 07:31:54;;;;;;;8.65;3.95;;;;;;;36.48;29.18;100723.94;4897504;28;97617;-88
2021/07/21 07:34:20;;;;;;;7.70;3.67;;;;;;;36.72;29.33;100723.28;4930724;28;101261;-89
2021/07/21 07:36:46;;;;;;;10.52;3.30;;;;;;;36.46;28.98;100720.56;4931780;28;101492;-91
2021/07/21 07:39:12;;;;;;;9.82;4.55;;;;;;;37.20;28.37;100718.50;4933084;28;96718;-89
2021/07/21 07:41:38;;;;;;;8.55;4.13;;;;;;;37.38;28.04;100721.34;4933081;28;96887;-93
2021/07/21 07:44:06;;;;;;;10.40;3.33;;;;;;;37.71;27.87;100725.81;4916808;28;98470;-89
2021/07/21 07:46:32;;;;;;;6.35;3.53;;;;;;;37.95;27.35;100721.44;4933991;28;101967;-87
2021/07/21 07:48:57;;;;;;;5.68;3.50;;;;;;;38.02;27.25;100725.81;4900265;28;97145;-85
2021/07/21 07:51:23;;;;;;;7.60;3.35;;;;;;;38.33;27.28;100723.22;4933259;28;98186;-90
2021/07/21 07:53:50;;;;;;;6.03;3.53;;;;;;;38.68;26.60;100718.03;4899323;28;101563;-83
2021/07/21 07:56:15;;;;;;;6.18;3.22;;;;;;;38.62;26.50;100722.53;4931934;28;101125;-86
2021/07/21 07:58:41;;;;;;;7.53;3.25;;;;;;;39.13;25.97;100720.50;4932252;28;97452;-86
2021/07/21 08:01:06;;;;;;;4.45;3.03;;;;;;;39.66;25.75;100717.00;4916520;28;97208;-88
2021/07/21 08:03:32;;;;;;;6.35;2.90;;;;;;;39.27;25.52;100718.38;4900135;28;101592;-81
2021/07/21 08:05:59;;;;;;;5.70;3.60;;;;;;;39.64;25.33;100716.41;4922721;28;100866;-82
2021/07/21 08:08:26;;;;;;;6.13;3.10;;;;;;;39.79;25.42;100710.50;4905850;28;96718;-84
2021/07/21 08:10:51;;;;;;;8.05;3.35;;;;;;;39.44;24.77;100716.69;4897253;28;96840;-83
2021/07/21 08:13:19;;;;;;;7.85;2.97;;;;;;;39.78;24.91;100715.16;4908871;28;102005;-83
2021/07/21 08:15:46;;;;;;;8.07;3.30;;;;;;;39.43;25.28;100716.94;4928287;28;101359;-84
2021/07/21 08:18:12;;;;;;;6.05;3.15;;;;;;;39.41;25.60;100711.69;4910163;28;98235;-84
2021/07/21 08:20:38;;;;;;;4.50;3.22;;;;;;;39.72;24.78;100724.31;4908797;28;98118;-85
2021/07/21 08:23:07;;;;;;;8.35;2.95;;;;;;;39.93;24.73;100720.19;4918419;28;101200;-84
2021/07/21 08:25:32;;;;;;;8.95;3.90;;;;;;;39.57;24.79;100718.44;4930120;28;100570;-85
2021/07/21 08:27:58;;;;;;;6.45;2.85;;;;;;;39.96;24.82;100719.72;4898543;28;97455;-84
2021/07/21 08:30:24;;;;;;;7.90;3.50;;;;;;;40.50;23.91;100719.66;4926325;28;98157;-83
2021/07/21 08:32:52;;;;;;;6.53;3.17;;;;;;;40.66;23.57;100726.34;4924641;28;101102;-83
2021/07/21 08:35:28;;;;;;;7.05;3.05;;;;;;;37.81;26.31;100717.94;4907905;28;101203;-84
2021/07/21 08:37:54;;;;;;;4.80;3.38;;;;;;;38.45;26.29;100722.28;4938261;28;96827;-84
2021/07/21 08:40:21;;;;;;;6.07;2.90;;;;;;;37.95;25.46;100724.19;4892820;28;98136;-85
2021/07/21 08:42:47;;;;;;;7.15;3.50;;;;;;;38.14;26.03;100719.59;4900362;28;101245;-84
2021/07/21 08:45:17;;;;;;;7.07;4.18;;;;;;;35.91;27.76;100733.59;4916654;28;99093;-86
2021/07/21 08:47:43;;;;;;;3.58;2.42;;;;;;;35.77;27.79;100727.25;4914951;28;97513;-85
2021/07/21 08:50:10;;;;;;;4.85;2.92;;;;;;;37.66;26.70;100731.13;4931116;28;97392;-86
2021/07/21 08:52:36;;;;;;;6.85;3.50;;;;;;;37.23;26.98;100729.00;4932145;28;97332;-84
2021/07/21 08:55:04;;;;;;;8.85;3.15;;;;;;;38.93;25.57;100724.31;4930821;28;101225;-85
2021/07/21 08:57:34;;;;;;;6.72;2.95;;;;;;;39.53;25.58;100723.53;4915734;28;96900;-87
2021/07/21 09:00:05;;;;;;;5.72;2.88;;;;;;;39.41;24.98;100728.16;4931854;28;97276;-86
2021/07/21 09:02:33;;;;;;;4.93;3.00;;;;;;;37.27;27.11;100716.56;4928232;28;101353;-86
2021/07/21 09:05:01;;;;;;;4.10;2.83;;;;;;;35.70;28.89;100724.53;4932009;28;97826;-87
2021/07/21 09:07:27;;;;;;;3.88;3.05;;;;;;;34.65;30.39;100734.75;4932538;28;97310;-88
2021/07/21 09:09:52;;;;;;;8.55;3.53;;;;;;;33.82;31.34;100741.75;4916150;28;96855;-88
2021/07/21 09:12:18;;;;;;;6.03;3.40;;;;;;;32.96;31.70;100738.84;4931649;28;101309;-86
2021/07/21 09:14:44;;;;;;;8.00;3.40;;;;;;;32.53;32.07;100737.78;4929860;28;100068;-87
2021/07/21 09:17:12;;;;;;;6.88;3.88;;;;;;;31.94;33.04;100733.00;4915686;28;96757;-88
2021/07/21 09:19:40;;;;;;;6.72;3.30;;;;;;;31.67;33.63;100737.94;4924401;28;97021;-90
2021/07/21 09:22:26;;;;;;;7.88;3.30;;;;;;;31.47;34.71;100734.81;4916855;28;101140;-88
2021/07/21 09:25:18;;;;;;;4.82;3.13;;;;;;;30.84;35.63;100736.63;4930105;28;96881;-87
2021/07/21 09:27:49;;;;;;;7.45;3.78;;;;;;;30.30;36.23;100749.88;4914499;28;97190;-88
2021/07/21 09:30:20;;;;;;;7.03;3.60;;;;;;;30.00;35.93;100738.72;4922496;28;96914;-87
2021/07/21 09:32:53;;;;;;;6.22;3.92;;;;;;;29.50;36.84;100744.19;4898584;28;101136;-86
2021/07/21 09:35:21;;;;;;;7.07;3.38;;;;;;;29.49;37.18;100746.03;4931089;28;100257;-87
2021/07/21 09:37:47;;;;;;;9.77;4.05;;;;;;;29.36;37.35;100742.13;4930250;28;97281;-85
2021/07/21 09:40:13;;;;;;;8.95;4.32;;;;;;;29.06;37.25;100744.34;4915439;28;97046;-87
2021/07/21 09:42:39;;;;;;;7.35;3.88;;;;;;;29.21;36.46;100744.59;4928026;28;101281;-86
2021/07/21 09:45:12;;;;;;;8.18;3.42;;;;;;;29.03;36.77;100739.28;4916654;28;101117;-85
2021/07/21 09:47:41;;;;;;;14.15;3.88;;;;;;;29.88;35.71;100740.06;4924951;28;96887;-85
2021/07/21 09:50:16;;;;;;;8.85;3.97;;;;;;;30.22;35.34;100736.34;4915549;28;97345;-86
2021/07/21 09:52:50;;;;;;;14.52;4.93;;;;;;;30.93;34.96;100736.59;4930977;28;97821;-86
2021/07/21 09:55:17;;;;;;;8.70;3.85;;;;;;;31.28;34.64;100730.69;4897959;28;101305;-86
2021/07/21 09:57:55;;;;;;;9.20;3.75;;;;;;;31.08;34.05;100732.97;4931381;28;97288;-85
2021/07/21 10:00:22;;;;;;;13.32;3.92;;;;;;;30.76;34.59;100741.19;4914926;28;97731;-85
2021/07/21 10:02:49;;;;;;;11.65;3.72;;;;;;;30.66;35.19;100738.66;4930512;28;101603;-85
2021/07/21 10:05:15;;;;;;;4.60;4.00;;;;;;;30.21;35.09;100729.25;4930075;28;98518;-86
2021/07/21 10:07:50;;;;;;;7.22;4.32;;;;;;;29.94;35.90;100739.38;4911490;28;96824;-85
2021/07/21 10:10:21;;;;;;;6.38;3.70;;;;;;;29.78;36.22;100742.06;4911656;28;99698;-85
2021/07/21 10:13:07;;;;;;;7.40;4.32;;;;;;;29.40;36.35;100738.91;4912055;28;101521;-87
2021/07/21 10:15:34;;;;;;;7.22;3.40;;;;;;;29.37;35.41;100738.41;4927491;28;101292;-85
2021/07/21 10:18:12;;;;;;;9.55;4.30;;;;;;;29.34;35.70;100740.41;4922977;28;96849;-85
2021/07/21 10:20:39;;;;;;;8.10;4.15;;;;;;;29.02;36.03;100741.13;4931032;28;97452;-86
2021/07/21 10:23:06;;;;;;;6.00;3.80;;;;;;;28.79;37.14;100738.09;4916338;28;100307;-86
2021/07/21 10:25:32;;;;;;;6.53;4.15;;;;;;;28.78;37.99;100738.28;4933005;28;101277;-87
2021/07/21 10:27:58;;;;;;;5.57;3.67;;;;;;;28.83;38.74;100744.91;4931979;28;96749;-86
2021/07/21 10:30:26;;;;;;;7.53;4.30;;;;;;;28.69;39.03;100739.25;4915528;28;96890;-85
2021/07/21 10:32:53;;;;;;;9.25;4.25;;;;;;;28.51;39.46;100745.56;4931903;28;101903;-85
2021/07/21 10:35:19;;;;;;;6.38;4.15;;;;;;;28.38;39.26;100735.13;4908693;28;101255;-85
2021/07/21 10:37:45;;;;;;;7.68;4.72;;;;;;;28.61;39.39;100742.75;4916596;28;97311;-84
2021/07/21 10:40:13;;;;;;;7.20;4.03;;;;;;;28.71;38.88;100737.22;4901231;28;97391;-84
2021/07/21 10:42:38;;;;;;;14.70;4.30;;;;;;;28.86;39.04;100739.19;4932132;28;100658;-85
2021/07/21 10:45:19;;;;;;;8.05;4.13;;;;;;;28.76;38.68;100740.28;4932598;28;98082;-85
2021/07/21 10:48:10;;;;;;;7.75;3.90;;;;;;;28.81;39.27;100738.81;4932080;28;97065;-85
2021/07/21 10:59:17;;;;;;;6.32;3.83;;;;;;;28.58;38.45;100743.06;4924932;28;97012;-84
2021/07/21 11:01:51;;;;;;;6.07;3.75;;;;;;;28.63;38.00;100733.47;4910957;28;96672;-85
2021/07/21 11:04:17;;;;;;;5.25;3.70;;;;;;;28.52;37.79;100735.59;4915135;28;101449;-84
2021/07/21 11:06:48;;;;;;;9.40;3.78;;;;;;;28.61;38.33;100724.69;4932362;28;98513;-85
2021/07/21 11:09:25;;;;;;;8.00;3.92;;;;;;;28.56;37.60;100728.88;4915025;28;98302;-85
2021/07/21 11:11:57;;;;;;;5.18;3.65;;;;;;;28.67;37.65;100728.59;4933339;28;96881;-85
2021/07/21 11:14:25;;;;;;;8.27;4.05;;;;;;;28.70;37.29;100724.72;4916923;28;100188;-86
2021/07/21 11:16:56;;;;;;;5.22;4.03;;;;;;;28.66;37.99;100722.34;4932412;28;97490;-86
2021/07/21 11:19:27;;;;;;;8.23;4.40;;;;;;;28.91;37.77;100724.31;4931578;28;96734;-84
2021/07/21 11:22:02;;;;;;;6.68;3.85;;;;;;;28.81;38.24;100714.50;4932243;28;97110;-85
2021/07/21 11:24:29;;;;;;;8.10;3.75;;;;;;;28.84;37.17;100716.03;4949057;28;100488;-89
2021/07/21 11:26:55;;;;;;;6.20;3.63;;;;;;;28.94;37.97;100722.13;4917521;28;100268;-89
2021/07/21 11:29:24;;;;;;;6.78;3.95;;;;;;;29.04;37.81;100724.78;4933627;28;96936;-89
2021/07/21 11:31:50;;;;;;;5.85;3.83;;;;;;;28.94;37.67;100718.59;4933218;28;96923;-82
2021/07/21 11:34:30;;;;;;;5.35;4.38;;;;;;;28.75;37.42;100728.66;4932372;28;101526;-91
2021/07/21 11:37:06;;;;;;;5.72;2.80;;;;;;;28.64;37.67;100732.47;4935570;28;98429;-92
2021/07/21 11:39:36;;;;;;;5.70;3.90;;;;;;;28.43;37.63;100729.28;4934096;28;97174;-90
2021/07/21 11:42:06;;;;;;;5.22;3.30;;;;;;;28.14;37.70;100726.84;4932709;28;96658;-91
2021/07/21 11:44:35;;;;;;;4.60;3.33;;;;;;;28.05;37.61;100723.25;4933080;28;101592;-89
2021/07/21 11:47:04;;;;;;;6.35;3.30;;;;;;;27.98;37.80;100727.56;4927189;28;97430;-87
2021/07/21 11:49:32;;;;;;;4.35;3.00;;;;;;;27.87;37.44;100725.13;4899125;28;97259;-88
2021/07/21 11:52:05;;;;;;;5.88;3.70;;;;;;;27.94;37.44;100728.88;4910913;28;97129;-86
2021/07/21 11:54:34;;;;;;;8.77;4.10;;;;;;;28.15;38.18;100726.69;4910962;28;97315;-84